createdAt,value
2018-03-08T00:00:25.798Z,99.99
2018-03-08T00:01:25.747Z,99.99
2018-03-08T00:02:25.700Z,99.99
2018-03-08T00:03:25.679Z,99.99
2018-03-08T00:04:25.631Z,99.99
2018-03-08T00:05:25.575Z,99.99
2018-03-08T00:06:25.531Z,99.99
2018-03-08T00:07:25.487Z,99.99
2018-03-08T00:08:25.473Z,99.99
2018-03-08T00:09:25.457Z,99.99
2018-03-08T00:10:25.366Z,99.99
2018-03-08T00:11:25.318Z,99.99
2018-03-08T00:12:25.278Z,99.99
2018-03-08T00:13:25.263Z,99.99
2018-03-08T00:14:25.192Z,99.99
2018-03-08T00:15:25.155Z,99.99
2018-03-08T00:16:25.114Z,99.99
2018-03-08T00:17:25.072Z,99.99
2018-03-08T00:18:25.056Z,99.99
2018-03-08T00:19:24.984Z,99.99
2018-03-08T00:20:24.948Z,99.99
2018-03-08T00:21:24.902Z,99.99
2018-03-08T00:22:24.857Z,99.99
2018-03-08T00:23:24.825Z,99.99
2018-03-08T00:24:24.800Z,99.99
2018-03-08T00:25:24.732Z,99.99
2018-03-08T00:26:24.688Z,99.99
2018-03-08T00:27:24.650Z,99.99
2018-03-08T00:28:24.607Z,99.99
2018-03-08T00:29:24.597Z,99.99
2018-03-08T00:30:24.523Z,99.99
2018-03-08T00:31:24.481Z,99.99
2018-03-08T00:32:24.444Z,99.99
2018-03-08T00:33:24.395Z,99.99
2018-03-08T00:34:24.373Z,99.99
2018-03-08T00:35:24.309Z,99.99
2018-03-08T00:36:24.280Z,99.99
2018-03-08T00:37:24.228Z,99.99
2018-03-08T00:38:24.182Z,99.99
2018-03-08T00:39:24.177Z,99.99
2018-03-08T00:40:24.099Z,99.99
2018-03-08T00:41:24.059Z,99.99
2018-03-08T00:42:24.013Z,99.99
2018-03-08T03:54:11.037Z,99.99
2018-03-08T03:55:10.991Z,99.99
2018-03-08T03:56:10.943Z,99.99
2018-03-08T03:57:10.910Z,99.99
2018-03-08T03:58:10.867Z,99.99
2018-03-08T03:59:10.845Z,99.99
2018-03-08T04:00:10.777Z,99.99
2018-03-08T04:01:10.739Z,99.99
2018-03-08T04:02:10.691Z,99.99
2018-03-08T04:03:10.647Z,99.99
2018-03-08T04:04:10.597Z,99.99
2018-03-08T04:05:10.588Z,99.99
2018-03-08T04:06:10.539Z,99.99
2018-03-08T04:07:10.475Z,99.99
2018-03-08T04:08:10.433Z,99.99
2018-03-08T04:09:10.389Z,99.99
2018-03-08T04:10:10.338Z,99.99
2018-03-08T04:11:10.318Z,99.99
2018-03-08T04:12:10.268Z,99.99
2018-03-08T04:13:10.213Z,99.99
2018-03-08T04:14:10.163Z,99.99
2018-03-08T04:15:10.125Z,99.99
2018-03-08T04:16:10.605Z,99.99
2018-03-08T04:17:10.031Z,99.99
2018-03-08T04:18:09.996Z,99.99
2018-03-08T04:19:09.952Z,99.99
2018-03-08T04:20:09.900Z,99.99
2018-03-08T04:21:09.864Z,99.99
2018-03-08T04:22:09.842Z,99.99
2018-03-08T04:23:09.770Z,99.99
2018-03-08T04:24:09.726Z,99.99
2018-03-08T04:25:09.689Z,99.99
2018-03-08T04:26:09.643Z,99.99
2018-03-08T04:27:09.601Z,99.99
2018-03-08T04:28:09.585Z,99.99
2018-03-08T04:29:09.506Z,99.99
2018-03-08T04:30:09.473Z,99.99
2018-03-08T04:31:09.423Z,99.99
2018-03-08T04:32:09.380Z,99.99
2018-03-08T04:33:09.332Z,99.99
2018-03-08T04:34:09.312Z,99.99
2018-03-08T04:35:09.245Z,99.99
2018-03-08T04:36:09.202Z,99.99
2018-03-08T04:37:09.156Z,99.99
2018-03-08T04:38:09.119Z,99.99
2018-03-08T04:39:09.099Z,99.99
2018-03-08T04:40:09.030Z,99.99
2018-03-08T04:41:08.987Z,99.99
2018-03-08T04:42:08.950Z,99.99
2018-03-08T04:43:08.891Z,99.99
2018-03-08T04:44:08.848Z,99.99
2018-03-08T04:45:08.830Z,99.99
2018-03-08T04:46:08.766Z,99.99
2018-03-08T04:47:08.722Z,99.99
2018-03-08T04:48:08.679Z,99.99
2018-03-08T04:49:08.633Z,99.99
2018-03-08T04:50:08.615Z,99.99
2018-03-08T04:51:08.540Z,99.99
2018-03-08T04:52:08.494Z,99.99
2018-03-08T04:53:08.461Z,99.99
2018-03-08T04:54:08.411Z,99.99
2018-03-08T04:55:08.377Z,99.99
2018-03-08T04:56:08.343Z,99.99
2018-03-08T04:57:08.283Z,99.99
2018-03-08T04:58:08.237Z,99.99
2018-03-08T04:59:08.185Z,99.99
2018-03-08T05:00:08.142Z,99.99
2018-03-08T05:01:08.126Z,99.99
2018-03-08T05:02:08.057Z,99.99
2018-03-08T05:03:08.019Z,99.99
2018-03-08T05:04:07.963Z,99.99
2018-03-08T05:05:07.924Z,99.99
2018-03-08T05:06:07.902Z,99.99
2018-03-08T05:07:07.830Z,99.99
2018-03-08T05:08:07.787Z,99.99
2018-03-08T05:09:07.747Z,99.99
2018-03-08T05:10:07.721Z,99.99
2018-03-08T05:11:07.686Z,99.99
2018-03-08T05:12:07.617Z,99.99
2018-03-08T05:13:07.569Z,99.99
2018-03-08T05:14:07.530Z,99.99
2018-03-08T05:15:07.480Z,99.99
2018-03-08T05:16:07.441Z,99.99
2018-03-08T05:17:07.414Z,99.99
2018-03-08T05:18:07.341Z,99.99
2018-03-08T05:19:07.332Z,99.99
2018-03-08T05:20:07.252Z,99.99
2018-03-08T05:21:07.211Z,99.99
2018-03-08T05:22:07.200Z,99.99
2018-03-08T05:23:07.131Z,99.99
2018-03-08T05:24:07.081Z,99.99
2018-03-08T05:25:07.038Z,99.99
2018-03-08T05:26:06.992Z,99.99
2018-03-08T05:27:06.940Z,99.99
2018-03-08T05:28:06.926Z,99.99
2018-03-08T05:29:06.866Z,99.99
2018-03-08T05:30:06.815Z,99.99
2018-03-08T05:31:06.776Z,99.99
2018-03-08T05:32:06.722Z,99.99
2018-03-08T05:33:06.691Z,99.99
2018-03-08T05:34:06.658Z,99.99
2018-03-08T05:35:06.586Z,99.99
2018-03-08T05:36:06.544Z,99.99
2018-03-08T05:37:06.503Z,99.99
2018-03-08T05:38:06.462Z,99.99
2018-03-08T05:39:06.415Z,99.99
2018-03-08T05:40:06.420Z,99.99
2018-03-08T05:41:06.327Z,99.99
2018-03-08T05:42:06.279Z,99.99
2018-03-08T05:43:06.238Z,99.99
2018-03-08T05:44:06.189Z,99.99
2018-03-08T05:45:06.170Z,99.99
2018-03-08T05:46:06.102Z,99.99
2018-03-08T05:47:06.062Z,99.99
2018-03-08T05:48:06.021Z,99.99
2018-03-08T05:49:05.969Z,99.99
2018-03-08T05:50:05.926Z,99.99
2018-03-08T05:51:05.911Z,99.99
2018-03-08T05:52:05.832Z,99.99
2018-03-08T05:53:05.783Z,99.99
2018-03-08T05:54:05.745Z,99.99
2018-03-08T05:55:05.699Z,99.99
2018-03-08T05:56:05.659Z,99.99
2018-03-08T05:57:05.638Z,99.99
2018-03-08T05:58:05.571Z,99.99
2018-03-08T05:59:05.516Z,99.99
2018-03-08T06:00:05.489Z,99.99
2018-03-08T06:01:05.430Z,99.99
2018-03-08T06:02:05.394Z,99.99
2018-03-08T06:03:05.370Z,99.99
2018-03-08T06:04:05.306Z,99.99
2018-03-08T06:05:05.256Z,99.99
2018-03-08T06:06:05.209Z,99.99
2018-03-08T06:07:05.163Z,99.99
2018-03-08T06:08:05.135Z,99.99
2018-03-08T06:09:05.104Z,99.99
2018-03-08T06:10:05.042Z,99.99
2018-03-08T06:11:04.996Z,99.99
2018-03-08T06:12:04.949Z,99.99
2018-03-08T06:13:04.910Z,99.99
2018-03-08T06:14:04.862Z,99.99
2018-03-08T06:15:04.840Z,99.99
2018-03-08T06:16:04.767Z,99.99
2018-03-08T06:17:04.722Z,99.99
2018-03-08T06:18:04.710Z,99.99
2018-03-08T06:19:04.641Z,99.99
2018-03-08T06:20:04.598Z,99.99
2018-03-08T06:21:04.580Z,99.99
2018-03-08T06:22:04.504Z,99.99
2018-03-08T06:23:04.467Z,99.99
2018-03-08T06:24:04.416Z,99.99
2018-03-08T06:25:04.372Z,99.99
2018-03-08T06:26:04.337Z,99.99
2018-03-08T06:27:04.317Z,99.99
2018-03-08T06:28:04.237Z,99.99
2018-03-08T06:29:04.204Z,99.99
2018-03-08T06:30:04.159Z,99.99
2018-03-08T06:31:04.104Z,99.99
2018-03-08T06:32:04.068Z,99.99
2018-03-08T06:33:04.051Z,99.99
2018-03-08T06:34:03.994Z,99.99
2018-03-08T06:35:03.949Z,99.99
2018-03-08T06:36:03.939Z,99.99
2018-03-08T06:37:03.852Z,99.99
2018-03-08T06:38:03.805Z,99.99
2018-03-08T06:39:03.815Z,99.99
2018-03-08T06:40:03.713Z,99.99
2018-03-08T06:41:03.672Z,99.99
2018-03-08T06:42:03.629Z,99.99
2018-03-08T06:43:03.586Z,98.92
2018-03-08T06:44:03.564Z,97.21
2018-03-08T06:45:03.552Z,95.36
2018-03-08T06:46:03.445Z,92.94
2018-03-08T06:47:03.407Z,91.33
2018-03-08T06:48:03.362Z,91.14
2018-03-08T06:49:03.318Z,90.33
2018-03-08T06:50:03.304Z,89.09
2018-03-08T06:51:03.272Z,87.76
2018-03-08T06:52:03.243Z,87.67
2018-03-08T06:53:03.152Z,86.53
2018-03-08T06:54:03.125Z,86.15
2018-03-08T06:55:03.097Z,85.34
2018-03-08T06:56:03.017Z,84.29
2018-03-08T06:57:02.985Z,84.95
2018-03-08T06:58:02.949Z,85.24
2018-03-08T06:59:02.897Z,84.48
2018-03-08T07:00:02.859Z,84.01
2018-03-08T07:01:02.856Z,83.25
2018-03-08T07:02:02.778Z,83.06
2018-03-08T07:03:02.732Z,83.06
2018-03-08T07:04:02.686Z,83.06
2018-03-08T07:05:02.644Z,83.06
2018-03-08T07:06:02.600Z,83.29
2018-03-08T07:07:02.591Z,82.43
2018-03-08T07:08:02.543Z,82.68
2018-03-08T07:09:02.481Z,82.53
2018-03-08T07:10:02.438Z,83.25
2018-03-08T07:11:02.404Z,83.25
2018-03-08T07:12:02.362Z,84.10
2018-03-08T07:13:02.369Z,83.72
2018-03-08T07:14:02.277Z,82.77
2018-03-08T07:15:02.245Z,82.58
2018-03-08T07:16:02.202Z,83.68
2018-03-08T07:17:02.159Z,84.39
2018-03-08T07:18:02.135Z,83.82
2018-03-08T07:19:02.087Z,84.29
2018-03-08T07:20:02.041Z,83.19
2018-03-08T07:21:02.008Z,80.86
2018-03-08T07:22:01.960Z,79.81
2018-03-08T07:23:01.946Z,79.01
2018-03-08T07:24:01.897Z,79.81
2018-03-08T07:25:01.842Z,79.24
2018-03-08T07:26:01.804Z,80.58
2018-03-08T07:27:01.765Z,82.68
2018-03-08T07:28:01.747Z,83.68
2018-03-08T07:29:01.686Z,84.44
2018-03-08T07:30:01.640Z,85.05
2018-03-08T07:31:01.603Z,84.58
2018-03-08T07:32:01.559Z,83.91
2018-03-08T07:33:01.545Z,85.11
2018-03-08T07:34:01.507Z,83.87
2018-03-08T07:35:01.439Z,84.34
2018-03-08T07:36:01.402Z,85.01
2018-03-08T07:37:01.372Z,86.30
2018-03-08T07:38:01.328Z,86.20
2018-03-08T07:39:01.287Z,86.96
2018-03-08T07:40:01.276Z,88.01
2018-03-08T07:41:01.199Z,88.95
2018-03-08T07:42:01.165Z,89.24
2018-03-08T07:43:01.126Z,89.62
2018-03-08T07:44:01.083Z,89.58
2018-03-08T07:45:01.055Z,91.19
2018-03-08T07:46:01.028Z,91.00
2018-03-08T07:47:01.023Z,90.43
2018-03-08T07:48:00.917Z,90.81
2018-03-08T07:49:00.875Z,90.52
2018-03-08T07:50:00.845Z,90.90
2018-03-08T07:51:00.795Z,91.00
2018-03-08T07:52:00.800Z,91.00
2018-03-08T07:53:00.722Z,91.28
2018-03-08T07:54:00.680Z,91.38
2018-03-08T07:55:00.634Z,90.81
2018-03-08T07:56:00.597Z,91.47
2018-03-08T07:57:00.560Z,91.47
2018-03-08T07:58:00.539Z,91.28
2018-03-08T07:59:00.466Z,91.66
2018-03-08T08:00:00.431Z,91.14
2018-03-08T08:01:00.388Z,89.67
2018-03-08T08:02:00.396Z,86.86
2018-03-08T08:03:00.310Z,85.62
2018-03-08T08:04:00.387Z,83.95
2018-03-08T08:05:00.221Z,83.48
2018-03-08T08:06:00.176Z,82.15
2018-03-08T08:07:00.145Z,83.44
2018-03-08T08:08:00.104Z,84.82
2018-03-08T08:09:00.059Z,85.77
2018-03-08T08:10:00.044Z,86.34
2018-03-08T08:10:59.988Z,84.58
2018-03-08T08:11:59.938Z,83.10
2018-03-08T08:12:59.902Z,81.77
2018-03-08T08:13:59.866Z,80.57
2018-03-08T08:14:59.826Z,79.52
2018-03-08T08:15:59.802Z,79.33
2018-03-08T08:16:59.812Z,78.00
2018-03-08T08:17:59.693Z,79.30
2018-03-08T08:18:59.659Z,81.25
2018-03-08T08:19:59.623Z,83.25
2018-03-08T08:20:59.593Z,83.87
2018-03-08T08:21:59.576Z,85.30
2018-03-08T08:22:59.505Z,85.11
2018-03-08T08:23:59.469Z,85.77
2018-03-08T08:24:59.429Z,85.49
2018-03-08T08:25:59.383Z,86.15
2018-03-08T08:26:59.347Z,86.68
2018-03-08T08:27:59.334Z,88.10
2018-03-08T08:28:59.266Z,87.72
2018-03-08T08:29:59.230Z,88.67
2018-03-08T08:30:59.196Z,88.57
2018-03-08T08:31:59.150Z,88.86
2018-03-08T08:32:59.119Z,88.39
2018-03-08T08:33:59.095Z,88.76
2018-03-08T08:34:59.025Z,88.57
2018-03-08T08:35:58.998Z,88.48
2018-03-08T08:36:58.950Z,89.14
2018-03-08T08:37:58.911Z,89.00
2018-03-08T08:38:58.870Z,88.20
2018-03-08T08:39:58.854Z,88.48
2018-03-08T08:40:58.788Z,89.24
2018-03-08T08:41:58.750Z,90.00
2018-03-08T08:42:58.714Z,89.62
2018-03-08T08:43:58.672Z,89.81
2018-03-08T08:44:58.623Z,89.72
2018-03-08T08:45:58.616Z,89.43
2018-03-08T08:46:58.548Z,89.33
2018-03-08T08:47:58.503Z,89.62
2018-03-08T08:48:58.463Z,89.24
2018-03-08T08:49:58.422Z,89.53
2018-03-08T08:50:58.387Z,89.72
2018-03-08T08:51:58.367Z,88.86
2018-03-08T08:52:58.299Z,88.71
2018-03-08T08:53:58.266Z,88.05
2018-03-08T08:54:58.223Z,87.95
2018-03-08T08:55:58.181Z,87.57
2018-03-08T08:56:58.145Z,87.86
2018-03-08T08:57:58.123Z,87.57
2018-03-08T08:58:58.056Z,88.15
2018-03-08T08:59:58.057Z,87.76
2018-03-08T09:00:57.983Z,87.48
2018-03-08T09:01:57.940Z,87.95
2018-03-08T09:02:57.890Z,88.05
2018-03-08T09:03:57.886Z,87.95
2018-03-08T09:04:57.812Z,87.29
2018-03-08T09:05:57.774Z,87.10
2018-03-08T09:06:57.731Z,87.29
2018-03-08T09:07:57.695Z,86.76
2018-03-08T09:08:57.649Z,86.76
2018-03-08T09:09:57.642Z,86.53
2018-03-08T09:10:57.572Z,86.34
2018-03-08T09:11:57.536Z,86.63
2018-03-08T09:12:57.489Z,86.43
2018-03-08T09:13:57.451Z,86.43
2018-03-08T09:14:57.413Z,86.91
2018-03-08T09:15:57.396Z,87.01
2018-03-08T09:16:57.332Z,87.19
2018-03-08T09:17:57.297Z,87.01
2018-03-08T09:18:57.247Z,87.01
2018-03-08T09:19:57.208Z,88.15
2018-03-08T09:20:57.177Z,87.38
2018-03-08T09:21:57.154Z,86.53
2018-03-08T09:22:57.082Z,86.86
2018-03-08T09:23:57.047Z,86.67
2018-03-08T09:24:57.008Z,86.00
2018-03-08T09:25:56.967Z,86.67
2018-03-08T09:26:56.951Z,86.19
2018-03-08T09:27:56.888Z,85.72
2018-03-08T09:28:56.849Z,85.53
2018-03-08T09:29:56.805Z,85.05
2018-03-08T09:30:56.763Z,84.52
2018-03-08T09:31:56.750Z,84.33
2018-03-08T09:32:56.683Z,83.76
2018-03-08T09:33:56.668Z,84.14
2018-03-08T09:34:56.603Z,83.48
2018-03-08T09:35:56.568Z,83.19
2018-03-08T09:36:56.553Z,83.14
2018-03-08T09:37:56.489Z,83.19
2018-03-08T09:38:56.444Z,83.33
2018-03-08T09:39:56.411Z,83.14
2018-03-08T09:40:56.369Z,82.67
2018-03-08T09:41:56.384Z,82.32
2018-03-08T09:42:56.294Z,81.23
2018-03-08T09:43:56.256Z,79.13
2018-03-08T09:44:56.210Z,77.17
2018-03-08T09:45:56.170Z,76.50
2018-03-08T09:46:56.656Z,76.31
2018-03-08T09:47:56.127Z,76.75
2018-03-08T09:48:56.060Z,78.23
2018-03-08T09:49:56.021Z,78.99
2018-03-08T09:50:55.982Z,80.13
2018-03-08T09:51:55.940Z,80.66
2018-03-08T09:52:55.908Z,81.24
2018-03-08T09:53:55.901Z,80.86
2018-03-08T09:54:55.833Z,81.52
2018-03-08T09:55:55.789Z,82.00
2018-03-08T09:56:55.753Z,82.38
2018-03-08T09:57:55.711Z,81.14
2018-03-08T09:58:55.692Z,81.62
2018-03-08T09:59:55.676Z,81.14
2018-03-08T10:00:55.611Z,81.05
2018-03-08T10:01:55.570Z,81.14
2018-03-08T10:02:55.535Z,81.62
2018-03-08T10:03:55.489Z,81.71
2018-03-08T10:04:55.455Z,81.85
2018-03-08T10:05:55.443Z,80.52
2018-03-08T10:06:55.381Z,79.94
2018-03-08T10:07:55.339Z,80.71
2018-03-08T10:08:55.302Z,80.95
2018-03-08T10:09:55.258Z,80.95
2018-03-08T10:10:55.220Z,81.14
2018-03-08T10:11:55.207Z,81.62
2018-03-08T10:12:55.148Z,80.66
2018-03-08T10:13:55.108Z,81.24
2018-03-08T10:14:55.079Z,81.43
2018-03-08T10:15:55.045Z,81.14
2018-03-08T10:16:55.023Z,80.86
2018-03-08T10:17:54.963Z,80.95
2018-03-08T10:18:54.924Z,82.38
2018-03-08T10:19:54.890Z,82.00
2018-03-08T10:20:54.847Z,81.81
2018-03-08T10:21:54.842Z,82.38
2018-03-08T10:22:54.763Z,81.52
2018-03-08T10:23:54.735Z,81.62
2018-03-08T10:24:54.698Z,82.19
2018-03-08T10:25:54.664Z,81.81
2018-03-08T10:26:54.613Z,82.19
2018-03-08T10:27:54.609Z,82.00
2018-03-08T10:28:54.534Z,81.71
2018-03-08T10:29:54.492Z,81.71
2018-03-08T10:30:54.478Z,81.71
2018-03-08T10:31:54.423Z,82.76
2018-03-08T10:32:54.425Z,82.95
2018-03-08T10:33:54.343Z,83.14
2018-03-08T10:34:54.306Z,83.14
2018-03-08T10:35:54.270Z,82.76
2018-03-08T10:36:54.220Z,82.86
2018-03-08T10:37:54.213Z,83.23
2018-03-08T10:38:54.146Z,83.23
2018-03-08T10:39:54.109Z,83.33
2018-03-08T10:40:54.064Z,82.86
2018-03-08T10:41:54.024Z,83.42
2018-03-08T10:42:53.997Z,82.76
2018-03-08T10:43:53.976Z,82.86
2018-03-08T10:44:53.919Z,82.95
2018-03-08T10:45:53.876Z,82.09
2018-03-08T10:46:53.833Z,82.00
2018-03-08T10:47:53.790Z,82.09
2018-03-08T10:49:53.740Z,81.24
2018-03-08T10:50:53.677Z,81.62
2018-03-08T10:51:53.632Z,81.37
2018-03-08T10:52:53.602Z,81.47
2018-03-08T10:53:53.579Z,80.80
2018-03-08T10:54:53.521Z,80.71
2018-03-08T10:55:53.502Z,80.61
2018-03-08T10:56:53.445Z,79.94
2018-03-08T10:57:53.401Z,80.04
2018-03-08T10:58:53.372Z,79.85
2018-03-08T10:59:53.350Z,79.19
2018-03-08T11:00:53.285Z,79.32
2018-03-08T11:01:53.279Z,79.32
2018-03-08T11:02:53.214Z,79.28
2018-03-08T11:03:53.171Z,79.60
2018-03-08T11:04:53.134Z,79.22
2018-03-08T11:05:53.096Z,78.71
2018-03-08T11:06:53.051Z,78.94
2018-03-08T11:07:53.043Z,78.94
2018-03-08T11:08:52.980Z,78.90
2018-03-08T11:09:52.950Z,79.13
2018-03-08T11:10:52.907Z,79.41
2018-03-08T11:11:52.868Z,78.75
2018-03-08T11:12:52.825Z,77.95
2018-03-08T11:13:52.815Z,78.23
2018-03-08T11:14:52.746Z,78.85
2018-03-08T11:15:52.712Z,79.28
2018-03-08T11:16:52.670Z,79.09
2018-03-08T11:17:52.630Z,79.66
2018-03-08T11:18:52.602Z,80.42
2018-03-08T11:19:52.590Z,80.04
2018-03-08T11:20:52.516Z,79.85
2018-03-08T11:21:52.474Z,80.13
2018-03-08T11:22:52.459Z,80.23
2018-03-08T11:23:52.408Z,80.71
2018-03-08T11:24:52.402Z,80.61
2018-03-08T11:25:52.332Z,79.85
2018-03-08T11:26:52.285Z,80.04
2018-03-08T11:27:52.259Z,80.61
2018-03-08T11:28:52.221Z,80.33
2018-03-08T11:29:52.174Z,79.66
2018-03-08T11:30:52.156Z,79.66
2018-03-08T11:31:52.108Z,79.47
2018-03-08T11:32:52.054Z,78.61
2018-03-08T11:33:52.012Z,78.94
2018-03-08T11:34:51.977Z,78.08
2018-03-08T11:35:51.942Z,78.17
2018-03-08T11:36:51.929Z,78.27
2018-03-08T11:37:51.863Z,78.17
2018-03-08T11:38:51.837Z,78.42
2018-03-08T11:39:51.789Z,78.71
2018-03-08T11:40:51.750Z,78.61
2018-03-08T11:41:51.716Z,79.19
2018-03-08T11:42:51.723Z,78.80
2018-03-08T11:43:51.626Z,79.47
2018-03-08T11:44:51.584Z,80.23
2018-03-08T11:45:51.559Z,79.47
2018-03-08T11:46:51.517Z,79.57
2018-03-08T11:47:51.492Z,79.47
2018-03-08T11:48:51.440Z,79.57
2018-03-08T11:49:51.406Z,79.66
2018-03-08T11:50:51.356Z,79.38
2018-03-08T11:51:51.326Z,79.38
2018-03-08T11:52:51.354Z,79.57
2018-03-08T11:53:51.241Z,79.28
2018-03-08T11:54:51.215Z,78.80
2018-03-08T11:55:51.165Z,78.80
2018-03-08T11:56:51.120Z,78.90
2018-03-08T11:57:51.108Z,78.80
2018-03-08T11:58:51.052Z,78.99
2018-03-08T11:59:51.010Z,79.38
2018-03-08T12:00:50.966Z,78.71
2018-03-08T12:01:50.922Z,78.17
2018-03-08T12:02:50.888Z,78.17
2018-03-08T12:03:50.875Z,78.27
2018-03-08T12:04:50.810Z,77.98
2018-03-08T12:05:50.817Z,77.98
2018-03-08T12:06:50.737Z,77.80
2018-03-08T12:07:50.697Z,77.80
2018-03-08T12:08:50.663Z,78.46
2018-03-08T12:09:50.636Z,78.71
2018-03-08T12:10:50.572Z,79.28
2018-03-08T12:11:50.540Z,79.57
2018-03-08T12:12:50.541Z,80.23
2018-03-08T12:13:50.456Z,79.94
2018-03-08T12:14:50.417Z,81.66
2018-03-08T12:15:50.410Z,82.99
2018-03-08T12:16:50.368Z,83.65
2018-03-08T12:17:50.325Z,84.42
2018-03-08T12:18:50.263Z,85.52
2018-03-08T12:19:50.228Z,86.28
2018-03-08T12:20:50.199Z,86.47
2018-03-08T12:21:50.171Z,86.76
2018-03-08T12:22:50.216Z,87.04
2018-03-08T12:23:50.063Z,87.71
2018-03-08T12:24:50.019Z,89.42
2018-03-08T12:25:49.987Z,89.89
2018-03-08T12:26:49.942Z,90.37
2018-03-08T12:27:49.935Z,90.75
2018-03-08T12:28:49.862Z,91.22
2018-03-08T12:29:49.825Z,91.56
2018-03-08T12:30:49.785Z,91.37
2018-03-08T12:31:49.745Z,91.56
2018-03-08T12:32:49.735Z,91.66
2018-03-08T12:33:49.701Z,91.75
2018-03-08T12:34:49.622Z,92.22
2018-03-08T12:35:49.578Z,92.32
2018-03-08T12:36:49.540Z,91.47
2018-03-08T12:37:49.504Z,90.70
2018-03-08T12:38:49.463Z,91.13
2018-03-08T12:39:49.456Z,90.61
2018-03-08T12:40:49.392Z,91.08
2018-03-08T12:41:49.337Z,91.75
2018-03-08T12:42:49.320Z,92.70
2018-03-08T12:43:49.259Z,92.22
2018-03-08T12:44:49.219Z,92.41
2018-03-08T12:45:49.201Z,91.37
2018-03-08T12:46:49.129Z,91.28
2018-03-08T12:47:49.093Z,92.22
2018-03-08T12:48:49.071Z,92.03
2018-03-08T12:49:49.036Z,92.41
2018-03-08T12:50:48.979Z,92.70
2018-03-08T12:51:48.949Z,93.08
2018-03-08T12:52:48.908Z,92.70
2018-03-08T12:53:48.844Z,92.51
2018-03-08T12:54:48.804Z,92.41
2018-03-08T12:55:48.773Z,92.41
2018-03-08T12:56:48.780Z,92.41
2018-03-08T12:57:48.689Z,91.75
2018-03-08T12:58:48.668Z,91.94
2018-03-08T12:59:48.609Z,92.41
2018-03-08T13:00:48.570Z,92.80
2018-03-08T13:01:48.525Z,92.32
2018-03-08T13:02:48.529Z,91.75
2018-03-08T13:03:48.443Z,92.22
2018-03-08T13:04:48.405Z,92.80
2018-03-08T13:05:48.372Z,92.89
2018-03-08T13:06:48.324Z,92.80
2018-03-08T13:07:48.307Z,91.56
2018-03-08T13:08:48.246Z,92.99
2018-03-08T13:09:48.192Z,92.89
2018-03-08T13:10:48.160Z,92.13
2018-03-08T13:11:48.110Z,92.13
2018-03-08T13:12:48.098Z,91.75
2018-03-08T13:13:48.067Z,91.75
2018-03-08T13:14:48.004Z,92.32
2018-03-08T13:15:47.956Z,91.56
2018-03-08T13:16:47.919Z,92.13
2018-03-08T13:17:47.874Z,92.46
2018-03-08T13:18:47.831Z,92.51
2018-03-08T13:19:47.818Z,92.99
2018-03-08T13:20:47.748Z,93.18
2018-03-08T13:21:47.714Z,94.22
2018-03-08T13:22:47.695Z,94.03
2018-03-08T13:23:47.635Z,94.98
2018-03-08T13:24:47.601Z,94.51
2018-03-08T13:25:47.583Z,94.98
2018-03-08T13:26:47.507Z,94.98
2018-03-08T13:27:47.462Z,94.70
2018-03-08T13:28:47.430Z,94.89
2018-03-08T13:29:47.390Z,94.51
2018-03-08T13:30:47.343Z,95.17
2018-03-08T13:31:47.335Z,94.89
2018-03-08T13:32:47.261Z,95.36
2018-03-08T13:33:47.223Z,95.56
2018-03-08T13:34:47.184Z,96.31
2018-03-08T13:35:47.142Z,95.75
2018-03-08T13:36:47.105Z,96.31
2018-03-08T13:37:47.085Z,95.75
2018-03-08T13:38:47.022Z,96.12
2018-03-08T13:39:46.972Z,97.17
2018-03-08T13:40:46.941Z,97.08
2018-03-08T13:41:46.905Z,97.27
2018-03-08T13:42:46.860Z,96.89
2018-03-08T13:43:46.851Z,98.22
2018-03-08T13:44:46.776Z,97.64
2018-03-08T13:45:46.732Z,97.45
2018-03-08T13:46:46.690Z,97.64
2018-03-08T13:47:46.656Z,98.17
2018-03-08T13:48:46.611Z,98.83
2018-03-08T13:49:46.599Z,98.22
2018-03-08T13:50:46.528Z,97.88
2018-03-08T13:51:46.496Z,99.11
2018-03-08T13:52:46.454Z,99.50
2018-03-08T13:53:46.407Z,99.40
2018-03-08T13:54:46.366Z,99.59
2018-03-08T13:55:46.358Z,99.69
2018-03-08T13:56:46.280Z,99.99
2018-03-08T13:57:46.250Z,99.69
2018-03-08T13:58:46.204Z,99.97
2018-03-08T13:59:46.161Z,99.99
2018-03-08T14:00:46.116Z,99.99
2018-03-08T14:01:46.101Z,99.99
2018-03-08T14:02:46.038Z,99.99
2018-03-08T14:03:45.992Z,99.99
2018-03-08T14:04:45.954Z,99.99
2018-03-08T14:05:45.906Z,99.99
2018-03-08T14:06:45.876Z,99.99
2018-03-08T14:07:45.855Z,99.99
2018-03-08T14:08:45.798Z,99.99
2018-03-08T14:09:45.747Z,99.99
2018-03-08T14:10:45.715Z,99.99
2018-03-08T14:11:45.665Z,99.99
2018-03-08T14:12:45.681Z,99.99
2018-03-08T14:13:45.613Z,99.99
2018-03-08T14:14:45.544Z,99.99
2018-03-08T14:15:45.510Z,99.99
2018-03-08T14:16:45.467Z,99.99
2018-03-08T14:17:45.427Z,99.99
2018-03-08T14:18:45.381Z,99.99
2018-03-08T14:19:45.371Z,99.99
2018-03-08T14:20:45.302Z,99.99
2018-03-08T14:21:45.253Z,99.99
2018-03-08T14:22:45.213Z,99.99
2018-03-08T14:23:45.171Z,99.99
2018-03-08T14:24:45.138Z,99.99
2018-03-08T14:25:45.116Z,99.99
2018-03-08T14:26:45.055Z,99.99
2018-03-08T14:27:45.013Z,99.99
2018-03-08T14:28:44.965Z,99.99
2018-03-08T14:29:44.936Z,99.99
2018-03-08T14:30:44.922Z,99.99
2018-03-08T14:31:44.848Z,99.99
2018-03-08T14:32:44.802Z,99.99
2018-03-08T14:33:44.806Z,99.99
2018-03-08T14:34:44.727Z,99.99
2018-03-08T14:35:44.687Z,99.99
2018-03-08T14:36:44.667Z,99.99
2018-03-08T14:37:44.603Z,99.99
2018-03-08T14:38:44.558Z,99.99
2018-03-08T14:39:44.519Z,99.99
2018-03-08T14:40:44.476Z,99.99
2018-03-08T14:41:44.438Z,99.99
2018-03-08T14:42:44.423Z,99.99
2018-03-08T14:43:44.351Z,99.99
2018-03-08T14:44:44.318Z,99.99
2018-03-08T14:45:44.269Z,99.99
2018-03-08T14:46:44.233Z,99.99
2018-03-08T14:47:44.202Z,99.99
2018-03-08T14:48:44.178Z,99.99
2018-03-08T14:49:44.108Z,99.99
2018-03-08T14:50:44.059Z,99.99
2018-03-08T14:51:44.033Z,99.99
2018-03-08T14:52:43.978Z,99.99
2018-03-08T14:53:43.944Z,99.99
2018-03-08T14:54:43.929Z,99.99
2018-03-08T14:55:43.861Z,99.99
2018-03-08T14:56:43.822Z,99.99
2018-03-08T14:57:43.784Z,99.99
2018-03-08T14:58:43.729Z,99.99
2018-03-08T14:59:43.691Z,99.99
2018-03-08T15:00:43.681Z,99.99
2018-03-08T15:01:43.612Z,99.99
2018-03-08T15:02:43.580Z,99.99
2018-03-08T15:03:43.527Z,99.99
2018-03-08T15:04:43.490Z,99.99
2018-03-08T15:05:43.448Z,99.99
2018-03-08T15:06:43.427Z,99.99
2018-03-08T15:07:43.364Z,99.99
2018-03-08T15:08:43.328Z,99.99
2018-03-08T15:09:43.281Z,99.99
2018-03-08T15:10:43.241Z,99.99
2018-03-08T15:11:43.218Z,99.99
2018-03-08T15:12:43.203Z,99.99
2018-03-08T15:13:43.118Z,99.99
2018-03-08T15:14:43.077Z,99.40
2018-03-08T15:15:43.030Z,98.74
2018-03-08T15:16:42.990Z,98.36
2018-03-08T15:17:42.960Z,98.26
2018-03-08T15:18:42.968Z,98.17
2018-03-08T15:19:42.874Z,98.36
2018-03-08T15:20:42.838Z,98.36
2018-03-08T15:21:42.793Z,98.36
2018-03-08T15:22:42.780Z,97.69
2018-03-08T15:23:42.709Z,97.60
2018-03-08T15:24:42.679Z,97.60
2018-03-08T15:25:42.628Z,97.78
2018-03-08T15:26:42.595Z,96.74
2018-03-08T15:27:42.538Z,96.45
2018-03-08T15:28:42.532Z,96.93
2018-03-08T15:29:42.454Z,97.60
2018-03-08T15:30:42.415Z,96.55
2018-03-08T15:31:42.386Z,96.17
2018-03-08T15:32:42.339Z,95.41
2018-03-08T15:33:42.303Z,95.32
2018-03-08T15:34:42.278Z,94.65
2018-03-08T15:35:42.212Z,94.74
2018-03-08T15:36:42.172Z,95.32
2018-03-08T15:37:42.131Z,95.12
2018-03-08T15:38:42.088Z,95.22
2018-03-08T15:39:42.053Z,95.79
2018-03-08T15:40:42.036Z,95.32
2018-03-08T15:41:41.960Z,95.89
2018-03-08T15:42:41.933Z,95.98
2018-03-08T15:43:41.890Z,96.45
2018-03-08T15:44:41.839Z,96.50
2018-03-08T15:45:41.805Z,96.50
2018-03-08T15:46:41.795Z,97.07
2018-03-08T15:47:41.712Z,97.64
2018-03-08T15:48:41.673Z,97.74
2018-03-08T15:49:41.637Z,97.83
2018-03-08T15:50:41.592Z,98.40
2018-03-08T15:51:41.557Z,97.64
2018-03-08T15:52:41.549Z,97.74
2018-03-08T15:53:41.481Z,98.02
2018-03-08T15:54:41.445Z,97.83
2018-03-08T15:55:41.395Z,97.55
2018-03-08T15:56:41.347Z,97.74
2018-03-08T15:57:41.310Z,97.83
2018-03-08T15:58:41.285Z,97.27
2018-03-08T15:59:41.264Z,97.55
2018-03-08T16:00:41.189Z,97.64
2018-03-08T16:01:41.141Z,97.36
2018-03-08T16:02:41.093Z,96.88
2018-03-08T16:03:41.078Z,96.79